createdAt,value
2023-04-26T00:00:08.996Z,2.10
2023-04-26T00:02:37.407Z,3.13
2023-04-26T00:05:07.159Z,1.90
2023-04-26T00:07:35.784Z,2.63
2023-04-26T00:10:05.644Z,1.33
2023-04-26T00:12:34.180Z,2.73
2023-04-26T00:15:04.903Z,2.37
2023-04-26T00:17:33.089Z,2.03
2023-04-26T00:20:01.664Z,1.93
2023-04-26T00:22:29.878Z,1.43
2023-04-26T00:24:58.384Z,2.87
2023-04-26T00:27:28.182Z,1.50
2023-04-26T00:29:56.797Z,2.47
2023-04-26T00:32:25.073Z,1.43
2023-04-26T00:34:53.419Z,2.57
2023-04-26T00:37:21.906Z,0.97
2023-04-26T00:39:50.029Z,1.23
2023-04-26T00:42:19.554Z,2.13
2023-04-26T00:44:50.432Z,0.70
2023-04-26T00:47:18.904Z,1.93
2023-04-26T00:49:47.507Z,1.57
2023-04-26T00:52:16.117Z,1.53
2023-04-26T00:54:44.724Z,0.77
2023-04-26T00:57:14.092Z,0.57
2023-04-26T00:59:42.836Z,0.60
2023-04-26T01:02:12.763Z,0.77
2023-04-26T01:04:41.951Z,1.17
2023-04-26T01:07:10.563Z,0.80
2023-04-26T01:09:38.979Z,0.70
2023-04-26T01:12:08.790Z,1.23
2023-04-26T01:14:38.284Z,2.13
2023-04-26T01:17:06.929Z,1.17
2023-04-26T01:19:37.807Z,1.20
2023-04-26T01:22:06.330Z,1.10
2023-04-26T01:24:37.828Z,1.37
2023-04-26T01:27:05.896Z,0.90
2023-04-26T01:29:34.491Z,0.50
2023-04-26T01:32:02.572Z,2.83
2023-04-26T01:34:30.809Z,1.70
2023-04-26T01:36:59.142Z,0.67
2023-04-26T01:39:28.016Z,0.57
2023-04-26T01:41:58.939Z,1.33
2023-04-26T01:44:27.308Z,1.00
2023-04-26T01:46:56.071Z,1.47
2023-04-26T01:49:24.482Z,1.20
2023-04-26T01:51:53.603Z,0.80
2023-04-26T01:54:21.702Z,2.20
2023-04-26T01:56:49.998Z,0.90
2023-04-26T01:59:19.675Z,2.03
2023-04-26T02:01:50.353Z,1.43
2023-04-26T02:04:18.556Z,2.30
2023-04-26T02:06:46.652Z,1.63
2023-04-26T02:09:15.003Z,1.17
2023-04-26T02:11:43.193Z,1.33
2023-04-26T02:14:11.290Z,0.90
2023-04-26T02:16:42.542Z,1.83
2023-04-26T02:19:11.276Z,0.70
2023-04-26T02:21:53.269Z,1.37
2023-04-26T02:24:22.260Z,0.73
2023-04-26T02:26:50.783Z,1.67
2023-04-26T02:29:26.572Z,0.63
2023-04-26T02:32:06.218Z,0.73
2023-04-26T02:34:34.736Z,2.07
2023-04-26T02:37:02.956Z,0.77
2023-04-26T02:39:31.677Z,2.67
2023-04-26T02:42:00.381Z,0.77
2023-04-26T02:44:31.003Z,0.80
2023-04-26T02:46:59.371Z,1.40
2023-04-26T02:49:29.436Z,2.27
2023-04-26T02:51:57.793Z,0.60
2023-04-26T02:54:25.945Z,2.57
2023-04-26T02:56:55.522Z,1.30
2023-04-26T02:59:23.723Z,2.83
2023-04-26T03:01:51.969Z,0.80
2023-04-26T03:04:20.885Z,1.53
2023-04-26T03:06:50.384Z,1.27
2023-04-26T03:09:18.401Z,0.93
2023-04-26T03:11:48.846Z,1.20
2023-04-26T03:14:18.453Z,0.97
2023-04-26T03:16:46.586Z,1.73
2023-04-26T03:19:15.106Z,1.80
2023-04-26T03:21:43.227Z,2.10
2023-04-26T03:24:12.836Z,1.60
2023-04-26T03:26:41.803Z,0.77
2023-04-26T03:29:09.967Z,2.57
2023-04-26T03:31:38.135Z,0.83
2023-04-26T03:34:08.280Z,1.27
2023-04-26T03:36:36.379Z,0.93
2023-04-26T03:39:05.917Z,2.27
2023-04-26T03:41:37.286Z,1.93
2023-04-26T03:44:05.638Z,1.20
2023-04-26T03:46:33.778Z,0.80
2023-04-26T03:49:02.082Z,0.70
2023-04-26T03:51:30.152Z,1.30
2023-04-26T03:54:00.148Z,2.70
2023-04-26T03:56:29.414Z,0.73
2023-04-26T03:58:59.011Z,1.33
2023-04-26T04:01:27.723Z,1.73
2023-04-26T04:03:56.233Z,0.83
2023-04-26T04:06:24.652Z,1.73
2023-04-26T04:08:52.817Z,2.00
2023-04-26T04:11:21.657Z,0.80
2023-04-26T04:13:49.853Z,2.00
2023-04-26T04:16:19.592Z,1.77
2023-04-26T04:18:48.013Z,2.03
2023-04-26T04:21:16.089Z,2.33
2023-04-26T04:23:44.711Z,1.30
2023-04-26T04:26:13.063Z,1.50
2023-04-26T04:28:41.683Z,2.40
2023-04-26T04:31:10.498Z,3.27
2023-04-26T04:33:40.603Z,1.10
2023-04-26T04:36:09.694Z,3.33
2023-04-26T04:38:37.991Z,0.80
2023-04-26T04:41:06.333Z,1.33
2023-04-26T04:43:34.634Z,2.43
2023-04-26T04:46:02.710Z,3.30
2023-04-26T04:48:31.316Z,3.77
2023-04-26T04:51:01.112Z,4.50
2023-04-26T04:53:29.353Z,0.90
2023-04-26T04:55:58.079Z,0.90
2023-04-26T04:58:26.500Z,6.43
2023-04-26T05:00:55.721Z,3.57
2023-04-26T05:03:24.130Z,2.13
2023-04-26T05:05:52.819Z,0.50
2023-04-26T05:08:22.620Z,1.10
2023-04-26T05:10:50.791Z,2.13
2023-04-26T05:13:18.907Z,1.70
2023-04-26T05:15:47.014Z,1.27
2023-04-26T05:18:15.359Z,1.23
2023-04-26T05:20:43.638Z,2.50
2023-04-26T05:23:11.841Z,2.03
2023-04-26T05:25:41.493Z,1.90
2023-04-26T05:28:12.883Z,3.90
2023-04-26T05:30:41.090Z,5.77
2023-04-26T05:33:09.532Z,1.40
2023-04-26T05:35:37.724Z,2.77
2023-04-26T05:38:05.854Z,2.57
2023-04-26T05:40:34.078Z,2.13
2023-04-26T05:43:03.604Z,1.10
2023-04-26T05:45:31.794Z,1.40
2023-04-26T05:48:00.779Z,1.00
2023-04-26T05:50:28.933Z,0.73
2023-04-26T05:52:59.719Z,1.83
2023-04-26T05:55:27.955Z,0.87
2023-04-26T05:57:56.215Z,1.80
2023-04-26T06:00:26.864Z,0.90
2023-04-26T06:02:55.219Z,0.83
2023-04-26T06:05:23.931Z,0.90
2023-04-26T06:07:53.641Z,2.33
2023-04-26T06:10:22.178Z,2.97
2023-04-26T06:12:50.400Z,2.37
2023-04-26T06:15:18.640Z,2.47
2023-04-26T06:17:48.405Z,4.30
2023-04-26T06:20:16.667Z,2.63
2023-04-26T06:22:44.988Z,3.30
2023-04-26T06:25:13.244Z,4.00
2023-04-26T06:27:41.588Z,2.40
2023-04-26T06:30:11.542Z,4.30
2023-04-26T06:32:40.741Z,2.97
2023-04-26T06:35:11.181Z,1.40
2023-04-26T06:37:39.831Z,3.07
2023-04-26T06:40:11.566Z,2.97
2023-04-26T06:42:39.658Z,2.17
2023-04-26T06:45:09.119Z,2.83
2023-04-26T06:47:37.909Z,21.90
2023-04-26T06:50:06.837Z,3.47
2023-04-26T06:52:36.615Z,3.23
2023-04-26T06:55:05.124Z,2.00
2023-04-26T06:57:33.260Z,1.97
2023-04-26T07:00:01.416Z,1.27
2023-04-26T07:02:29.944Z,5.93
2023-04-26T07:04:58.691Z,2.77
2023-04-26T07:07:27.553Z,1.67
2023-04-26T07:09:57.463Z,2.90
2023-04-26T07:12:25.791Z,1.70
2023-04-26T07:14:54.082Z,3.10
2023-04-26T07:17:22.555Z,4.70
2023-04-26T07:19:50.842Z,1.53
2023-04-26T07:22:19.205Z,1.30
2023-04-26T07:24:47.428Z,7.37
2023-04-26T07:27:17.138Z,6.47
2023-04-26T07:29:45.183Z,2.47
2023-04-26T07:32:13.565Z,2.17
2023-04-26T07:34:42.176Z,3.00
2023-04-26T07:37:10.394Z,1.87
2023-04-26T07:39:38.668Z,6.10
2023-04-26T07:42:07.236Z,1.13
2023-04-26T07:44:36.838Z,13.83
2023-04-26T07:47:05.142Z,0.90
2023-04-26T07:49:33.734Z,8.40
2023-04-26T07:52:02.570Z,2.20
2023-04-26T07:54:31.182Z,2.53
2023-04-26T07:56:59.416Z,2.70
2023-04-26T07:59:27.827Z,1.60
2023-04-26T08:01:57.883Z,3.83
2023-04-26T08:04:34.307Z,3.57
2023-04-26T08:07:03.100Z,1.80
2023-04-26T08:09:32.184Z,1.93
2023-04-26T08:12:02.721Z,5.83
2023-04-26T08:14:31.287Z,3.50
2023-04-26T08:17:01.874Z,1.73
2023-04-26T08:19:33.559Z,4.10
2023-04-26T08:22:01.835Z,3.37
2023-04-26T08:24:29.913Z,1.90
2023-04-26T08:26:59.380Z,1.13
2023-04-26T08:29:28.840Z,1.70
2023-04-26T08:31:56.966Z,2.40
2023-04-26T08:34:29.547Z,0.40
2023-04-26T08:36:58.178Z,3.60
2023-04-26T08:39:26.583Z,5.27
2023-04-26T08:41:56.556Z,1.53
2023-04-26T08:44:26.881Z,1.37
2023-04-26T08:47:08.512Z,2.80
2023-04-26T08:49:42.804Z,3.20
2023-04-26T08:52:12.436Z,1.30
2023-04-26T08:54:41.971Z,6.63
2023-04-26T08:57:10.987Z,4.83
2023-04-26T08:59:39.952Z,2.50
2023-04-26T09:02:09.015Z,0.93
2023-04-26T09:04:38.272Z,0.60
2023-04-26T09:07:09.913Z,1.30
2023-04-26T09:09:43.232Z,14.93
2023-04-26T09:12:11.545Z,1.50
2023-04-26T09:14:40.217Z,2.03
2023-04-26T09:17:23.911Z,2.53
2023-04-26T09:19:52.167Z,1.03
2023-04-26T09:22:37.833Z,3.67
2023-04-26T09:25:07.473Z,1.57
2023-04-26T09:27:41.461Z,3.37
2023-04-26T09:30:22.169Z,6.23
2023-04-26T09:32:53.722Z,2.13
2023-04-26T09:35:30.726Z,1.70
2023-04-26T09:38:08.633Z,4.63
2023-04-26T09:40:41.126Z,1.93
2023-04-26T09:43:12.332Z,4.20
2023-04-26T09:45:52.203Z,1.17
2023-04-26T09:48:22.964Z,0.60
2023-04-26T09:50:53.547Z,1.10
2023-04-26T09:53:31.883Z,1.23
2023-04-26T09:56:11.254Z,1.00
2023-04-26T09:58:41.461Z,1.50
2023-04-26T10:01:11.831Z,1.37
2023-04-26T10:03:41.076Z,1.80
2023-04-26T10:06:09.616Z,1.97
2023-04-26T10:08:39.328Z,1.13
2023-04-26T10:11:10.884Z,1.23
2023-04-26T10:13:42.593Z,1.60
2023-04-26T10:16:11.908Z,5.10
2023-04-26T10:18:43.483Z,8.43
2023-04-26T10:21:17.409Z,1.70
2023-04-26T10:23:48.609Z,3.63
2023-04-26T10:26:55.029Z,1.93
2023-04-26T10:29:24.371Z,1.87
2023-04-26T10:32:11.009Z,4.03
2023-04-26T10:34:39.473Z,0.97
2023-04-26T10:37:18.922Z,0.70
2023-04-26T10:39:48.876Z,0.97
2023-04-26T10:42:27.831Z,2.30
2023-04-26T10:44:59.890Z,3.97
2023-04-26T10:47:33.443Z,1.30
2023-04-26T10:50:07.386Z,3.97
2023-04-26T10:52:36.360Z,17.70
2023-04-26T10:55:07.940Z,2.30
2023-04-26T10:57:52.712Z,1.30
2023-04-26T11:00:33.661Z,1.43
2023-04-26T11:03:06.746Z,2.90
2023-04-26T11:05:55.975Z,2.60
2023-04-26T11:08:28.475Z,3.97
2023-04-26T11:11:12.272Z,1.57
2023-04-26T11:13:41.775Z,2.37
2023-04-26T11:16:11.151Z,2.70
2023-04-26T11:18:40.958Z,1.20
2023-04-26T11:21:09.931Z,1.20
2023-04-26T11:23:38.161Z,2.00
2023-04-26T11:26:10.570Z,4.43
2023-04-26T11:28:40.153Z,5.00
2023-04-26T11:31:08.820Z,0.93
2023-04-26T11:33:37.268Z,3.17
2023-04-26T11:36:06.022Z,2.90
2023-04-26T11:38:34.317Z,0.50
2023-04-26T11:41:03.722Z,1.53
2023-04-26T11:43:36.980Z,3.03
2023-04-26T11:46:05.914Z,6.17
2023-04-26T11:48:36.005Z,4.40
2023-04-26T11:51:05.751Z,1.33
2023-04-26T11:53:38.462Z,2.13
2023-04-26T11:56:15.641Z,2.53
2023-04-26T11:58:47.971Z,2.30
2023-04-26T12:01:23.594Z,2.00
2023-04-26T12:03:53.932Z,1.40
2023-04-26T12:06:27.090Z,2.17
2023-04-26T12:08:55.586Z,4.60
2023-04-26T12:11:23.643Z,2.73
2023-04-26T12:13:53.468Z,2.30
2023-04-26T12:16:26.720Z,0.43
2023-04-26T12:18:57.217Z,1.77
2023-04-26T12:21:30.678Z,6.07
2023-04-26T12:23:59.281Z,0.70
2023-04-26T12:26:44.440Z,0.30
2023-04-26T12:29:14.038Z,0.43
2023-04-26T12:31:42.469Z,3.57
2023-04-26T12:34:10.706Z,4.20
2023-04-26T12:36:40.091Z,1.70
2023-04-26T12:39:09.068Z,1.97
2023-04-26T12:41:37.385Z,7.07
2023-04-26T12:44:08.266Z,1.40
2023-04-26T12:46:38.004Z,1.77
2023-04-26T12:49:06.391Z,3.90
2023-04-26T12:51:34.928Z,2.37
2023-04-26T12:54:03.385Z,1.07
2023-04-26T12:56:31.869Z,0.70
2023-04-26T12:59:00.223Z,2.33
2023-04-26T13:01:28.871Z,0.83
2023-04-26T13:04:00.949Z,1.40
2023-04-26T13:06:29.342Z,1.53
2023-04-26T13:08:57.792Z,1.27
2023-04-26T13:11:25.964Z,1.17
2023-04-26T13:13:54.843Z,3.03
2023-04-26T13:16:23.109Z,0.97
2023-04-26T13:18:51.502Z,1.13
2023-04-26T13:21:21.215Z,1.20
2023-04-26T13:23:49.393Z,1.10
2023-04-26T13:26:18.574Z,1.53
2023-04-26T13:28:47.607Z,3.07
2023-04-26T13:31:17.804Z,1.10
2023-04-26T13:33:47.536Z,1.23
2023-04-26T13:36:21.372Z,1.33
2023-04-26T13:38:52.039Z,3.13
2023-04-26T13:41:20.337Z,2.90
2023-04-26T13:43:48.361Z,2.53
2023-04-26T13:46:16.797Z,0.73
2023-04-26T13:48:45.004Z,1.53
2023-04-26T13:51:13.283Z,1.83
2023-04-26T13:53:41.599Z,0.83
2023-04-26T13:56:11.174Z,2.07
2023-04-26T13:58:39.433Z,1.13
2023-04-26T14:01:08.022Z,2.83
2023-04-26T14:03:36.801Z,4.03
2023-04-26T14:06:09.742Z,0.60
2023-04-26T14:08:38.090Z,1.43
2023-04-26T14:11:11.730Z,5.33
2023-04-26T14:13:42.057Z,1.60
2023-04-26T14:16:11.062Z,2.83
2023-04-26T14:18:45.094Z,3.60
2023-04-26T14:21:13.582Z,3.63
2023-04-26T14:23:41.914Z,1.17
2023-04-26T14:26:10.238Z,4.63
2023-04-26T14:28:38.691Z,2.20
2023-04-26T14:31:08.422Z,2.33
2023-04-26T14:33:36.976Z,3.87
2023-04-26T14:36:05.794Z,1.63
2023-04-26T14:38:33.865Z,0.97
2023-04-26T14:41:03.274Z,1.23
2023-04-26T14:43:32.072Z,1.97
2023-04-26T14:46:00.254Z,1.10
2023-04-26T14:48:30.007Z,0.40
2023-04-26T14:51:01.559Z,0.93
2023-04-26T14:53:29.926Z,2.53
2023-04-26T14:55:59.488Z,1.53
2023-04-26T14:58:28.924Z,1.30
2023-04-26T15:00:59.039Z,0.53
2023-04-26T15:03:27.794Z,1.93
2023-04-26T15:05:57.751Z,0.93
2023-04-26T15:08:26.690Z,1.77
2023-04-26T15:10:55.017Z,1.37
2023-04-26T15:13:23.138Z,6.33
2023-04-26T15:15:51.430Z,3.13
2023-04-26T15:18:19.940Z,1.30
2023-04-26T15:20:48.179Z,5.13
2023-04-26T15:23:18.332Z,1.60
2023-04-26T15:25:47.955Z,2.63
2023-04-26T15:28:17.761Z,0.73
2023-04-26T15:30:46.930Z,3.43
2023-04-26T15:33:15.191Z,1.60
2023-04-26T15:35:44.462Z,2.40
2023-04-26T15:38:12.788Z,2.57
2023-04-26T15:40:42.425Z,3.33
2023-04-26T15:43:10.840Z,2.13
2023-04-26T15:45:39.037Z,4.23
2023-04-26T15:48:07.802Z,3.80
2023-04-26T15:50:39.551Z,2.50
2023-04-26T15:53:07.833Z,3.83
2023-04-26T15:55:38.260Z,7.70
2023-04-26T15:58:07.933Z,9.37
2023-04-26T16:00:36.588Z,8.53
2023-04-26T16:03:05.140Z,7.90
2023-04-26T16:05:33.768Z,8.77
2023-04-26T16:08:03.529Z,5.67
2023-04-26T16:10:31.782Z,5.93
2023-04-26T16:13:01.390Z,7.17
2023-04-26T16:15:31.034Z,10.87
2023-04-26T16:17:59.282Z,3.63
2023-04-26T16:20:28.221Z,10.23
2023-04-26T16:22:59.721Z,8.40
2023-04-26T16:25:28.023Z,9.37
2023-04-26T16:27:57.333Z,6.70
2023-04-26T16:30:26.685Z,8.03
2023-04-26T16:32:56.706Z,9.37
2023-04-26T16:35:25.407Z,7.93
2023-04-26T16:37:56.584Z,10.47
2023-04-26T16:40:24.811Z,13.30
2023-04-26T16:42:53.565Z,8.07
2023-04-26T16:45:22.097Z,15.03
2023-04-26T16:47:50.435Z,13.20
2023-04-26T16:50:20.102Z,7.13
2023-04-26T16:52:48.246Z,10.17
2023-04-26T16:55:16.729Z,8.67
2023-04-26T16:57:44.965Z,9.03
2023-04-26T17:00:19.355Z,10.43
2023-04-26T17:02:50.745Z,10.57
2023-04-26T17:05:20.539Z,16.80
2023-04-26T17:07:48.771Z,14.10
2023-04-26T17:10:17.028Z,8.20
2023-04-26T17:12:45.229Z,11.93
2023-04-26T17:15:13.681Z,8.20
2023-04-26T17:17:43.345Z,12.00
2023-04-26T17:20:13.737Z,8.90
2023-04-26T17:22:43.622Z,11.03
2023-04-26T17:25:11.886Z,10.87
2023-04-26T17:27:46.994Z,13.07
2023-04-26T17:30:16.139Z,9.33
2023-04-26T17:32:44.312Z,10.93
2023-04-26T17:35:17.771Z,8.07
2023-04-26T17:37:50.212Z,9.97
2023-04-26T17:40:19.413Z,7.47
2023-04-26T17:42:48.214Z,11.33
2023-04-26T17:45:19.440Z,15.17
2023-04-26T17:47:47.798Z,10.07
2023-04-26T17:50:17.912Z,10.87
2023-04-26T17:52:49.504Z,9.07
2023-04-26T17:55:18.230Z,9.70
2023-04-26T17:57:46.818Z,10.27
2023-04-26T18:00:16.482Z,8.07
2023-04-26T18:02:45.775Z,9.37
2023-04-26T18:05:14.286Z,7.97
2023-04-26T18:07:42.879Z,13.07
2023-04-26T18:10:13.842Z,9.13
2023-04-26T18:12:42.987Z,10.77
2023-04-26T18:15:12.588Z,10.97
2023-04-26T18:17:41.308Z,13.93
2023-04-26T18:20:11.314Z,10.83
2023-04-26T18:22:40.327Z,8.30
2023-04-26T18:25:09.354Z,11.77
2023-04-26T18:27:39.272Z,14.30
2023-04-26T18:30:09.439Z,6.97
2023-04-26T18:32:37.781Z,8.13
2023-04-26T18:35:06.724Z,13.20
2023-04-26T18:37:35.185Z,8.07
2023-04-26T18:40:05.006Z,5.90
2023-04-26T18:42:33.069Z,9.13
2023-04-26T18:45:03.247Z,7.70
2023-04-26T18:47:32.189Z,8.07
2023-04-26T18:50:00.730Z,6.63
2023-04-26T18:52:29.343Z,6.90
2023-04-26T18:54:58.078Z,16.07
2023-04-26T18:57:27.448Z,13.67
2023-04-26T18:59:56.845Z,13.73
2023-04-26T19:02:32.719Z,7.57
2023-04-26T19:05:01.888Z,11.97
2023-04-26T19:07:30.206Z,8.80
2023-04-26T19:10:02.735Z,11.80
2023-04-26T19:12:39.847Z,11.07
2023-04-26T19:15:09.359Z,11.13
2023-04-26T19:17:39.881Z,9.37
2023-04-26T19:20:13.173Z,12.97
2023-04-26T19:22:44.740Z,12.43
2023-04-26T19:25:14.203Z,15.03
2023-04-26T19:27:43.010Z,15.17
2023-04-26T19:30:12.495Z,17.17
2023-04-26T19:32:43.412Z,10.20
2023-04-26T19:35:11.604Z,12.87
2023-04-26T19:37:39.949Z,12.03
2023-04-26T19:40:10.117Z,14.97
2023-04-26T19:42:38.780Z,12.33
2023-04-26T19:45:08.241Z,11.73
2023-04-26T19:47:41.833Z,9.63
2023-04-26T19:50:12.532Z,10.20
2023-04-26T19:52:40.765Z,12.13
2023-04-26T19:55:10.495Z,7.17
2023-04-26T19:57:38.793Z,6.67
2023-04-26T20:00:11.784Z,8.70
2023-04-26T20:02:40.170Z,6.27
2023-04-26T20:05:09.538Z,12.17
2023-04-26T20:07:39.075Z,9.10
2023-04-26T20:10:08.774Z,11.00
2023-04-26T20:12:37.173Z,9.53
2023-04-26T20:15:06.059Z,13.70
2023-04-26T20:17:34.313Z,11.87
2023-04-26T20:20:03.809Z,10.47
2023-04-26T20:22:31.998Z,12.00
2023-04-26T20:25:01.711Z,11.73
2023-04-26T20:27:29.860Z,12.23
2023-04-26T20:29:59.087Z,14.77
2023-04-26T20:32:27.343Z,14.50
2023-04-26T20:34:55.844Z,12.30
2023-04-26T20:37:24.249Z,11.67
2023-04-26T20:39:52.372Z,11.87
2023-04-26T20:42:22.077Z,14.43
2023-04-26T20:44:50.631Z,10.07
2023-04-26T20:47:19.425Z,12.23
2023-04-26T20:49:47.759Z,9.23
2023-04-26T20:52:15.976Z,8.93
2023-04-26T20:54:44.729Z,6.30
2023-04-26T20:57:12.904Z,5.27
2023-04-26T20:59:42.720Z,2.73
2023-04-26T21:02:11.678Z,6.67
2023-04-26T21:04:42.255Z,7.23
2023-04-26T21:07:11.211Z,8.67
2023-04-26T21:09:39.982Z,8.07
2023-04-26T21:12:08.396Z,11.17
2023-04-26T21:14:36.590Z,9.97
2023-04-26T21:17:06.848Z,6.77
2023-04-26T21:19:35.056Z,8.47
2023-04-26T21:22:03.768Z,4.07
2023-04-26T21:24:32.039Z,3.83
2023-04-26T21:27:00.221Z,3.67
2023-04-26T21:29:28.449Z,5.47
2023-04-26T21:31:56.799Z,3.10
2023-04-26T21:34:26.570Z,6.63
2023-04-26T21:36:54.710Z,4.30
2023-04-26T21:39:22.927Z,3.90
2023-04-26T21:41:51.157Z,6.43
2023-04-26T21:44:19.894Z,3.67
2023-04-26T21:46:48.222Z,6.00
2023-04-26T21:49:16.389Z,5.93
2023-04-26T21:51:45.936Z,5.93
2023-04-26T21:54:14.460Z,3.83
2023-04-26T21:56:42.500Z,2.93
2023-04-26T21:59:12.240Z,4.13
2023-04-26T22:01:41.716Z,7.77
2023-04-26T22:04:10.075Z,6.57
2023-04-26T22:06:38.463Z,6.47
2023-04-26T22:09:09.919Z,2.87
2023-04-26T22:11:38.409Z,2.60
2023-04-26T22:14:06.881Z,4.70
2023-04-26T22:16:35.271Z,1.60
2023-04-26T22:19:03.541Z,5.13
2023-04-26T22:21:32.377Z,1.90
2023-04-26T22:24:01.445Z,4.23
2023-04-26T22:26:33.288Z,3.97
2023-04-26T22:29:01.543Z,3.73
2023-04-26T22:31:29.706Z,3.37
2023-04-26T22:33:58.213Z,3.53
2023-04-26T22:36:27.086Z,5.53
2023-04-26T22:38:55.582Z,3.00
2023-04-26T22:41:23.874Z,2.23
2023-04-26T22:43:53.709Z,3.03
2023-04-26T22:46:21.932Z,2.93
2023-04-26T22:48:50.221Z,3.20
2023-04-26T22:51:18.514Z,3.30
2023-04-26T22:53:46.877Z,2.50
2023-04-26T22:56:15.460Z,6.17
2023-04-26T22:58:43.695Z,3.50
2023-04-26T23:01:13.395Z,3.70
2023-04-26T23:03:42.065Z,4.60
2023-04-26T23:06:10.889Z,8.40
2023-04-26T23:08:39.264Z,3.73
2023-04-26T23:11:10.875Z,2.93
2023-04-26T23:13:39.056Z,2.43
2023-04-26T23:16:08.702Z,4.77
2023-04-26T23:18:40.138Z,6.07
2023-04-26T23:21:08.608Z,5.23
2023-04-26T23:23:37.081Z,9.20
2023-04-26T23:26:08.361Z,3.80
2023-04-26T23:28:37.333Z,3.87
2023-04-26T23:31:05.675Z,4.03
2023-04-26T23:33:33.939Z,3.97
2023-04-26T23:36:03.653Z,5.07
2023-04-26T23:38:31.751Z,4.63
2023-04-26T23:41:00.029Z,4.73
2023-04-26T23:43:28.395Z,2.80
2023-04-26T23:45:56.705Z,7.17
2023-04-26T23:48:24.912Z,4.37
2023-04-26T23:50:53.248Z,4.07
2023-04-26T23:53:22.826Z,3.20
2023-04-26T23:55:51.044Z,5.57
2023-04-26T23:58:19.568Z,4.83
